VIB weather

CLOSED Villa ConstituciĆ³n Airport
Ciudad ConstituciĆ³n, Baja California Sur, Mexico

Public forecast

Using degrees Celsius for public forecast. Weather courtesy of forecast.io.

METAR (pilot weather report)

Report is more than 2 hours old.

Closest report is Loreto International Airport, 59.0 nm (109.3 km) NNE. Retrieved 2019/06/19 01:50 UTC (2 hours ago):

MMLT 190150Z 16006KT 8SM SCT240 30/19 A2980 RMK 8/005 HZY

TAF (pilot weather forecast)

Forecast is more than 6 hours old.

Closest forecast is Loreto International Airport, 59.0 nm (109.3 km) NNE. Retrieved 2019/06/18 18:00 UTC (10 hours ago):

TAF MMLT 181658Z 1818/1918 03010KT P6SM SCT250 FM190600 06010KT P6SM SKC